sensor_id;sensor_type;location;lat;lon;timestamp;P1;durP1;ratioP1;P2;durP2;ratioP2
9722;SDS011;4900;49.306;8.500;2023-07-20T00:01:03;2.72;;;2.08;;
9722;SDS011;4900;49.306;8.500;2023-07-20T00:03:28;2.47;;;2.03;;
9722;SDS011;4900;49.306;8.500;2023-07-20T00:05:54;2.40;;;1.90;;
9722;SDS011;4900;49.306;8.500;2023-07-20T00:08:19;2.30;;;1.70;;
9722;SDS011;4900;49.306;8.500;2023-07-20T00:10:45;2.25;;;1.98;;
9722;SDS011;4900;49.306;8.500;2023-07-20T00:13:11;3.53;;;2.20;;
9722;SDS011;4900;49.306;8.500;2023-07-20T00:15:36;3.13;;;2.00;;
9722;SDS011;4900;49.306;8.500;2023-07-20T00:18:03;3.05;;;2.30;;
9722;SDS011;4900;49.306;8.500;2023-07-20T00:20:29;2.65;;;2.05;;
9722;SDS011;4900;49.306;8.500;2023-07-20T00:22:54;2.25;;;1.90;;
9722;SDS011;4900;49.306;8.500;2023-07-20T00:25:20;3.45;;;2.10;;
9722;SDS011;4900;49.306;8.500;2023-07-20T00:27:45;3.78;;;2.30;;
9722;SDS011;4900;49.306;8.500;2023-07-20T00:30:11;3.03;;;2.08;;
9722;SDS011;4900;49.306;8.500;2023-07-20T00:32:37;4.93;;;2.10;;
9722;SDS011;4900;49.306;8.500;2023-07-20T00:35:02;5.03;;;2.25;;
9722;SDS011;4900;49.306;8.500;2023-07-20T00:37:28;3.03;;;2.60;;
9722;SDS011;4900;49.306;8.500;2023-07-20T00:39:56;3.80;;;2.33;;
9722;SDS011;4900;49.306;8.500;2023-07-20T00:42:22;3.55;;;2.40;;
9722;SDS011;4900;49.306;8.500;2023-07-20T00:44:47;4.20;;;2.70;;
9722;SDS011;4900;49.306;8.500;2023-07-20T00:47:12;3.22;;;2.50;;
9722;SDS011;4900;49.306;8.500;2023-07-20T00:49:38;4.32;;;2.35;;
9722;SDS011;4900;49.306;8.500;2023-07-20T00:52:06;3.25;;;2.30;;
9722;SDS011;4900;49.306;8.500;2023-07-20T00:54:33;3.47;;;2.20;;
9722;SDS011;4900;49.306;8.500;2023-07-20T00:56:59;2.67;;;2.30;;
9722;SDS011;4900;49.306;8.500;2023-07-20T00:59:26;3.47;;;2.30;;
9722;SDS011;4900;49.306;8.500;2023-07-20T01:01:52;3.83;;;2.17;;
9722;SDS011;4900;49.306;8.500;2023-07-20T01:04:17;3.63;;;2.03;;
9722;SDS011;4900;49.306;8.500;2023-07-20T01:09:34;3.10;;;2.00;;
9722;SDS011;4900;49.306;8.500;2023-07-20T01:14:37;2.88;;;1.98;;
9722;SDS011;4900;49.306;8.500;2023-07-20T01:17:04;3.22;;;2.10;;
9722;SDS011;4900;49.306;8.500;2023-07-20T01:19:29;2.95;;;2.10;;
9722;SDS011;4900;49.306;8.500;2023-07-20T01:21:57;4.00;;;2.10;;
9722;SDS011;4900;49.306;8.500;2023-07-20T01:33:17;2.72;;;2.03;;
9722;SDS011;4900;49.306;8.500;2023-07-20T01:35:44;3.25;;;2.13;;
9722;SDS011;4900;49.306;8.500;2023-07-20T01:38:13;3.03;;;2.20;;
9722;SDS011;4900;49.306;8.500;2023-07-20T01:40:39;2.83;;;1.83;;
9722;SDS011;4900;49.306;8.500;2023-07-20T01:43:05;3.17;;;1.98;;
9722;SDS011;4900;49.306;8.500;2023-07-20T01:45:31;3.38;;;1.90;;
9722;SDS011;4900;49.306;8.500;2023-07-20T01:47:56;2.83;;;2.10;;
9722;SDS011;4900;49.306;8.500;2023-07-20T01:50:22;2.75;;;2.13;;
9722;SDS011;4900;49.306;8.500;2023-07-20T01:52:47;2.97;;;1.90;;
9722;SDS011;4900;49.306;8.500;2023-07-20T01:55:13;2.72;;;1.92;;
9722;SDS011;4900;49.306;8.500;2023-07-20T01:57:38;2.40;;;1.92;;
9722;SDS011;4900;49.306;8.500;2023-07-20T02:00:04;2.92;;;2.00;;
9722;SDS011;4900;49.306;8.500;2023-07-20T02:02:30;3.15;;;2.10;;
9722;SDS011;4900;49.306;8.500;2023-07-20T02:04:56;3.00;;;2.00;;
9722;SDS011;4900;49.306;8.500;2023-07-20T02:07:21;2.78;;;2.10;;
9722;SDS011;4900;49.306;8.500;2023-07-20T02:09:47;2.63;;;1.90;;
9722;SDS011;4900;49.306;8.500;2023-07-20T02:12:12;2.83;;;2.05;;
9722;SDS011;4900;49.306;8.500;2023-07-20T02:14:38;2.40;;;2.20;;
9722;SDS011;4900;49.306;8.500;2023-07-20T02:17:04;2.35;;;1.98;;
9722;SDS011;4900;49.306;8.500;2023-07-20T02:19:30;3.40;;;1.83;;
9722;SDS011;4900;49.306;8.500;2023-07-20T02:21:55;4.32;;;2.30;;
9722;SDS011;4900;49.306;8.500;2023-07-20T02:24:20;2.63;;;2.13;;
9722;SDS011;4900;49.306;8.500;2023-07-20T02:26:46;2.55;;;2.03;;
9722;SDS011;4900;49.306;8.500;2023-07-20T02:29:11;2.35;;;1.77;;
9722;SDS011;4900;49.306;8.500;2023-07-20T02:31:37;2.63;;;1.90;;
9722;SDS011;4900;49.306;8.500;2023-07-20T02:34:05;3.05;;;2.10;;
9722;SDS011;4900;49.306;8.500;2023-07-20T02:36:31;2.60;;;1.95;;
9722;SDS011;4900;49.306;8.500;2023-07-20T02:38:58;3.20;;;2.08;;
9722;SDS011;4900;49.306;8.500;2023-07-20T02:41:24;4.18;;;2.10;;
9722;SDS011;4900;49.306;8.500;2023-07-20T02:43:49;3.58;;;2.25;;
9722;SDS011;4900;49.306;8.500;2023-07-20T02:46:15;3.42;;;2.00;;
9722;SDS011;4900;49.306;8.500;2023-07-20T02:48:40;3.83;;;2.20;;
9722;SDS011;4900;49.306;8.500;2023-07-20T02:51:06;3.10;;;2.05;;
9722;SDS011;4900;49.306;8.500;2023-07-20T02:53:32;2.47;;;1.95;;
9722;SDS011;4900;49.306;8.500;2023-07-20T02:55:58;2.75;;;2.30;;
9722;SDS011;4900;49.306;8.500;2023-07-20T02:58:23;3.17;;;2.10;;
9722;SDS011;4900;49.306;8.500;2023-07-20T03:00:49;2.97;;;1.95;;
9722;SDS011;4900;49.306;8.500;2023-07-20T03:03:14;2.83;;;2.10;;
9722;SDS011;4900;49.306;8.500;2023-07-20T03:05:40;3.08;;;2.10;;
9722;SDS011;4900;49.306;8.500;2023-07-20T03:08:06;3.35;;;2.13;;
9722;SDS011;4900;49.306;8.500;2023-07-20T03:10:32;2.33;;;1.95;;
9722;SDS011;4900;49.306;8.500;2023-07-20T03:12:57;2.53;;;1.90;;
9722;SDS011;4900;49.306;8.500;2023-07-20T03:15:23;3.45;;;2.17;;
9722;SDS011;4900;49.306;8.500;2023-07-20T03:17:49;2.70;;;1.88;;
9722;SDS011;4900;49.306;8.500;2023-07-20T03:20:14;3.80;;;2.13;;
9722;SDS011;4900;49.306;8.500;2023-07-20T03:22:39;2.42;;;2.00;;
9722;SDS011;4900;49.306;8.500;2023-07-20T03:25:05;2.40;;;2.00;;
9722;SDS011;4900;49.306;8.500;2023-07-20T03:27:30;2.83;;;2.28;;
9722;SDS011;4900;49.306;8.500;2023-07-20T03:29:56;3.63;;;2.50;;
9722;SDS011;4900;49.306;8.500;2023-07-20T03:32:21;2.95;;;2.53;;
9722;SDS011;4900;49.306;8.500;2023-07-20T03:34:47;3.60;;;2.67;;
9722;SDS011;4900;49.306;8.500;2023-07-20T03:37:13;2.83;;;2.38;;
9722;SDS011;4900;49.306;8.500;2023-07-20T03:39:38;4.57;;;2.65;;
9722;SDS011;4900;49.306;8.500;2023-07-20T03:42:04;3.40;;;2.60;;
9722;SDS011;4900;49.306;8.500;2023-07-20T03:44:30;3.30;;;2.30;;
9722;SDS011;4900;49.306;8.500;2023-07-20T03:46:55;5.25;;;2.75;;
9722;SDS011;4900;49.306;8.500;2023-07-20T03:49:21;3.45;;;2.53;;
9722;SDS011;4900;49.306;8.500;2023-07-20T03:51:46;3.28;;;2.53;;
9722;SDS011;4900;49.306;8.500;2023-07-20T03:54:12;3.35;;;2.50;;
9722;SDS011;4900;49.306;8.500;2023-07-20T03:56:37;2.92;;;2.28;;
9722;SDS011;4900;49.306;8.500;2023-07-20T03:59:03;2.53;;;2.20;;
9722;SDS011;4900;49.306;8.500;2023-07-20T04:01:28;6.65;;;2.22;;
9722;SDS011;4900;49.306;8.500;2023-07-20T04:03:54;2.90;;;2.20;;
9722;SDS011;4900;49.306;8.500;2023-07-20T04:06:20;4.00;;;2.40;;
9722;SDS011;4900;49.306;8.500;2023-07-20T04:08:45;3.33;;;2.30;;
9722;SDS011;4900;49.306;8.500;2023-07-20T04:11:12;4.22;;;2.35;;
9722;SDS011;4900;49.306;8.500;2023-07-20T04:13:37;2.90;;;2.28;;
9722;SDS011;4900;49.306;8.500;2023-07-20T04:16:03;4.05;;;2.38;;
9722;SDS011;4900;49.306;8.500;2023-07-20T04:18:29;2.70;;;2.30;;
9722;SDS011;4900;49.306;8.500;2023-07-20T04:20:54;3.85;;;2.38;;
9722;SDS011;4900;49.306;8.500;2023-07-20T04:23:20;4.72;;;2.38;;
9722;SDS011;4900;49.306;8.500;2023-07-20T04:25:45;3.08;;;2.20;;
9722;SDS011;4900;49.306;8.500;2023-07-20T04:28:11;3.70;;;2.28;;
9722;SDS011;4900;49.306;8.500;2023-07-20T04:30:36;3.60;;;2.53;;
9722;SDS011;4900;49.306;8.500;2023-07-20T04:33:03;2.55;;;2.35;;
9722;SDS011;4900;49.306;8.500;2023-07-20T04:35:45;3.00;;;2.30;;
9722;SDS011;4900;49.306;8.500;2023-07-20T04:38:15;2.78;;;2.08;;
9722;SDS011;4900;49.306;8.500;2023-07-20T04:40:43;4.05;;;2.10;;
9722;SDS011;4900;49.306;8.500;2023-07-20T04:43:09;3.33;;;2.30;;
9722;SDS011;4900;49.306;8.500;2023-07-20T04:45:35;3.30;;;2.25;;
9722;SDS011;4900;49.306;8.500;2023-07-20T04:48:00;3.03;;;2.50;;
9722;SDS011;4900;49.306;8.500;2023-07-20T04:50:25;3.20;;;2.50;;
9722;SDS011;4900;49.306;8.500;2023-07-20T04:52:51;4.80;;;2.67;;
9722;SDS011;4900;49.306;8.500;2023-07-20T04:55:17;3.28;;;2.85;;
9722;SDS011;4900;49.306;8.500;2023-07-20T04:57:42;3.15;;;2.65;;
9722;SDS011;4900;49.306;8.500;2023-07-20T05:00:08;4.65;;;2.83;;
9722;SDS011;4900;49.306;8.500;2023-07-20T05:02:36;2.85;;;2.55;;
9722;SDS011;4900;49.306;8.500;2023-07-20T05:05:03;3.42;;;2.53;;
9722;SDS011;4900;49.306;8.500;2023-07-20T05:07:30;2.75;;;2.33;;
9722;SDS011;4900;49.306;8.500;2023-07-20T05:09:56;4.35;;;2.40;;
9722;SDS011;4900;49.306;8.500;2023-07-20T05:12:22;3.97;;;2.20;;
9722;SDS011;4900;49.306;8.500;2023-07-20T05:14:47;3.17;;;2.10;;
9722;SDS011;4900;49.306;8.500;2023-07-20T05:17:12;2.67;;;2.17;;
9722;SDS011;4900;49.306;8.500;2023-07-20T05:19:38;3.70;;;2.80;;
9722;SDS011;4900;49.306;8.500;2023-07-20T05:22:03;2.35;;;2.13;;
9722;SDS011;4900;49.306;8.500;2023-07-20T05:24:30;3.08;;;2.08;;
9722;SDS011;4900;49.306;8.500;2023-07-20T05:26:56;2.75;;;2.20;;
9722;SDS011;4900;49.306;8.500;2023-07-20T05:29:21;3.20;;;2.40;;
9722;SDS011;4900;49.306;8.500;2023-07-20T05:31:47;4.10;;;2.50;;
9722;SDS011;4900;49.306;8.500;2023-07-20T05:34:12;2.90;;;2.33;;
9722;SDS011;4900;49.306;8.500;2023-07-20T05:36:37;3.55;;;2.30;;
9722;SDS011;4900;49.306;8.500;2023-07-20T05:39:03;4.35;;;2.50;;
9722;SDS011;4900;49.306;8.500;2023-07-20T05:41:29;4.60;;;2.50;;
9722;SDS011;4900;49.306;8.500;2023-07-20T05:43:54;3.13;;;2.60;;
9722;SDS011;4900;49.306;8.500;2023-07-20T05:46:19;3.42;;;2.10;;
9722;SDS011;4900;49.306;8.500;2023-07-20T05:48:45;3.20;;;2.50;;
9722;SDS011;4900;49.306;8.500;2023-07-20T05:51:10;2.70;;;2.50;;
9722;SDS011;4900;49.306;8.500;2023-07-20T05:53:36;3.45;;;2.45;;
9722;SDS011;4900;49.306;8.500;2023-07-20T05:56:01;3.90;;;2.67;;
9722;SDS011;4900;49.306;8.500;2023-07-20T05:58:28;3.10;;;2.58;;
9722;SDS011;4900;49.306;8.500;2023-07-20T06:00:53;3.38;;;2.45;;
9722;SDS011;4900;49.306;8.500;2023-07-20T06:03:18;3.75;;;2.70;;
9722;SDS011;4900;49.306;8.500;2023-07-20T06:05:46;3.70;;;2.60;;
9722;SDS011;4900;49.306;8.500;2023-07-20T06:08:12;4.47;;;2.90;;
9722;SDS011;4900;49.306;8.500;2023-07-20T06:10:37;3.53;;;2.70;;
9722;SDS011;4900;49.306;8.500;2023-07-20T06:13:02;4.38;;;2.60;;
9722;SDS011;4900;49.306;8.500;2023-07-20T06:15:30;3.65;;;2.50;;
9722;SDS011;4900;49.306;8.500;2023-07-20T06:17:59;4.50;;;2.85;;
9722;SDS011;4900;49.306;8.500;2023-07-20T06:20:25;3.28;;;2.58;;
9722;SDS011;4900;49.306;8.500;2023-07-20T06:22:51;3.97;;;2.70;;
9722;SDS011;4900;49.306;8.500;2023-07-20T06:25:16;3.83;;;2.80;;
9722;SDS011;4900;49.306;8.500;2023-07-20T06:27:42;3.95;;;2.80;;
9722;SDS011;4900;49.306;8.500;2023-07-20T06:30:08;3.00;;;2.60;;
9722;SDS011;4900;49.306;8.500;2023-07-20T06:32:34;3.50;;;2.47;;
9722;SDS011;4900;49.306;8.500;2023-07-20T06:34:59;3.30;;;2.60;;
9722;SDS011;4900;49.306;8.500;2023-07-20T06:37:25;3.00;;;2.45;;
9722;SDS011;4900;49.306;8.500;2023-07-20T06:39:51;3.33;;;2.60;;
9722;SDS011;4900;49.306;8.500;2023-07-20T06:42:16;5.18;;;2.50;;
9722;SDS011;4900;49.306;8.500;2023-07-20T06:44:41;4.25;;;2.60;;
9722;SDS011;4900;49.306;8.500;2023-07-20T06:47:07;4.57;;;2.72;;
9722;SDS011;4900;49.306;8.500;2023-07-20T06:49:32;3.55;;;2.30;;
9722;SDS011;4900;49.306;8.500;2023-07-20T06:51:58;4.30;;;2.40;;
9722;SDS011;4900;49.306;8.500;2023-07-20T06:54:23;3.08;;;2.58;;
9722;SDS011;4900;49.306;8.500;2023-07-20T06:56:49;3.05;;;2.58;;
9722;SDS011;4900;49.306;8.500;2023-07-20T06:59:15;4.03;;;2.95;;
9722;SDS011;4900;49.306;8.500;2023-07-20T07:01:40;5.53;;;2.92;;
9722;SDS011;4900;49.306;8.500;2023-07-20T07:04:06;3.53;;;2.50;;
9722;SDS011;4900;49.306;8.500;2023-07-20T07:06:31;3.30;;;2.85;;
9722;SDS011;4900;49.306;8.500;2023-07-20T07:08:58;3.08;;;2.75;;
9722;SDS011;4900;49.306;8.500;2023-07-20T07:11:23;3.83;;;2.72;;
9722;SDS011;4900;49.306;8.500;2023-07-20T07:13:49;3.60;;;3.10;;
9722;SDS011;4900;49.306;8.500;2023-07-20T07:16:16;3.85;;;3.35;;
9722;SDS011;4900;49.306;8.500;2023-07-20T07:18:44;3.67;;;3.10;;
9722;SDS011;4900;49.306;8.500;2023-07-20T07:21:10;3.45;;;2.85;;
9722;SDS011;4900;49.306;8.500;2023-07-20T07:23:35;3.67;;;2.90;;
9722;SDS011;4900;49.306;8.500;2023-07-20T07:26:01;3.20;;;2.90;;
9722;SDS011;4900;49.306;8.500;2023-07-20T07:28:28;4.50;;;3.17;;
9722;SDS011;4900;49.306;8.500;2023-07-20T07:30:54;6.00;;;3.30;;
9722;SDS011;4900;49.306;8.500;2023-07-20T07:33:20;5.50;;;4.07;;
9722;SDS011;4900;49.306;8.500;2023-07-20T07:35:45;4.95;;;3.50;;
9722;SDS011;4900;49.306;8.500;2023-07-20T07:38:11;4.57;;;3.22;;
9722;SDS011;4900;49.306;8.500;2023-07-20T07:40:36;3.67;;;3.35;;
9722;SDS011;4900;49.306;8.500;2023-07-20T07:43:02;5.75;;;3.45;;
9722;SDS011;4900;49.306;8.500;2023-07-20T07:45:28;3.22;;;2.78;;
9722;SDS011;4900;49.306;8.500;2023-07-20T07:47:54;3.42;;;2.80;;
9722;SDS011;4900;49.306;8.500;2023-07-20T07:50:19;4.38;;;2.63;;
9722;SDS011;4900;49.306;8.500;2023-07-20T07:52:44;3.78;;;3.08;;
9722;SDS011;4900;49.306;8.500;2023-07-20T07:55:10;4.75;;;2.60;;
9722;SDS011;4900;49.306;8.500;2023-07-20T07:57:35;3.35;;;2.90;;
9722;SDS011;4900;49.306;8.500;2023-07-20T08:00:01;4.40;;;3.60;;
9722;SDS011;4900;49.306;8.500;2023-07-20T08:02:26;2.90;;;2.60;;
9722;SDS011;4900;49.306;8.500;2023-07-20T08:04:52;3.67;;;2.70;;
9722;SDS011;4900;49.306;8.500;2023-07-20T08:07:17;3.85;;;2.72;;
9722;SDS011;4900;49.306;8.500;2023-07-20T08:09:43;2.70;;;2.45;;
9722;SDS011;4900;49.306;8.500;2023-07-20T08:12:08;3.75;;;2.55;;
9722;SDS011;4900;49.306;8.500;2023-07-20T08:14:34;3.30;;;2.63;;
9722;SDS011;4900;49.306;8.500;2023-07-20T08:16:59;3.20;;;2.35;;
9722;SDS011;4900;49.306;8.500;2023-07-20T08:19:25;3.45;;;2.40;;
9722;SDS011;4900;49.306;8.500;2023-07-20T08:21:50;2.65;;;2.45;;
9722;SDS011;4900;49.306;8.500;2023-07-20T08:24:15;3.03;;;2.40;;
9722;SDS011;4900;49.306;8.500;2023-07-20T08:26:41;2.72;;;2.22;;
9722;SDS011;4900;49.306;8.500;2023-07-20T08:29:06;2.78;;;2.10;;
9722;SDS011;4900;49.306;8.500;2023-07-20T08:31:31;2.15;;;1.80;;
9722;SDS011;4900;49.306;8.500;2023-07-20T08:33:57;2.13;;;1.92;;
9722;SDS011;4900;49.306;8.500;2023-07-20T08:36:23;1.90;;;1.80;;
9722;SDS011;4900;49.306;8.500;2023-07-20T08:38:48;3.50;;;1.80;;
9722;SDS011;4900;49.306;8.500;2023-07-20T08:41:14;2.28;;;1.77;;
9722;SDS011;4900;49.306;8.500;2023-07-20T08:43:40;3.58;;;1.90;;
9722;SDS011;4900;49.306;8.500;2023-07-20T08:46:08;2.03;;;1.83;;
9722;SDS011;4900;49.306;8.500;2023-07-20T08:48:36;2.67;;;1.92;;
9722;SDS011;4900;49.306;8.500;2023-07-20T08:51:01;2.83;;;1.90;;
9722;SDS011;4900;49.306;8.500;2023-07-20T08:53:29;3.00;;;1.73;;
9722;SDS011;4900;49.306;8.500;2023-07-20T08:55:56;2.15;;;1.88;;
9722;SDS011;4900;49.306;8.500;2023-07-20T08:58:23;3.70;;;1.90;;
9722;SDS011;4900;49.306;8.500;2023-07-20T09:00:50;3.45;;;1.80;;
9722;SDS011;4900;49.306;8.500;2023-07-20T09:03:17;2.70;;;1.80;;
9722;SDS011;4900;49.306;8.500;2023-07-20T09:05:43;4.30;;;2.00;;
9722;SDS011;4900;49.306;8.500;2023-07-20T09:08:09;2.30;;;1.70;;
9722;SDS011;4900;49.306;8.500;2023-07-20T09:10:34;2.88;;;2.08;;
9722;SDS011;4900;49.306;8.500;2023-07-20T09:13:00;2.17;;;1.80;;
9722;SDS011;4900;49.306;8.500;2023-07-20T09:15:25;13.70;;;2.85;;
9722;SDS011;4900;49.306;8.500;2023-07-20T09:17:51;14.48;;;3.80;;
9722;SDS011;4900;49.306;8.500;2023-07-20T09:20:19;6.30;;;2.40;;
9722;SDS011;4900;49.306;8.500;2023-07-20T09:22:45;2.97;;;1.95;;
9722;SDS011;4900;49.306;8.500;2023-07-20T09:25:12;2.72;;;1.92;;
9722;SDS011;4900;49.306;8.500;2023-07-20T09:27:40;2.15;;;1.77;;
9722;SDS011;4900;49.306;8.500;2023-07-20T09:30:07;1.85;;;1.63;;
9722;SDS011;4900;49.306;8.500;2023-07-20T09:32:47;2.45;;;1.80;;
9722;SDS011;4900;49.306;8.500;2023-07-20T09:35:17;2.78;;;1.70;;
9722;SDS011;4900;49.306;8.500;2023-07-20T09:37:50;2.60;;;1.65;;
9722;SDS011;4900;49.306;8.500;2023-07-20T09:40:26;2.58;;;1.80;;
9722;SDS011;4900;49.306;8.500;2023-07-20T09:42:53;3.17;;;1.90;;
9722;SDS011;4900;49.306;8.500;2023-07-20T09:45:35;1.73;;;1.60;;
9722;SDS011;4900;49.306;8.500;2023-07-20T09:48:04;2.03;;;1.60;;
9722;SDS011;4900;49.306;8.500;2023-07-20T09:50:31;2.60;;;2.15;;
9722;SDS011;4900;49.306;8.500;2023-07-20T09:52:57;2.25;;;1.80;;
9722;SDS011;4900;49.306;8.500;2023-07-20T09:55:25;2.28;;;2.08;;
9722;SDS011;4900;49.306;8.500;2023-07-20T09:57:51;2.15;;;1.88;;
9722;SDS011;4900;49.306;8.500;2023-07-20T10:00:18;2.92;;;1.90;;
9722;SDS011;4900;49.306;8.500;2023-07-20T10:02:44;3.03;;;1.95;;
9722;SDS011;4900;49.306;8.500;2023-07-20T10:05:11;2.45;;;1.95;;
9722;SDS011;4900;49.306;8.500;2023-07-20T10:07:40;3.03;;;1.73;;
9722;SDS011;4900;49.306;8.500;2023-07-20T10:10:18;2.00;;;1.80;;
9722;SDS011;4900;49.306;8.500;2023-07-20T10:12:44;2.60;;;1.70;;
9722;SDS011;4900;49.306;8.500;2023-07-20T10:15:18;2.20;;;1.88;;
9722;SDS011;4900;49.306;8.500;2023-07-20T10:17:53;2.08;;;1.67;;
9722;SDS011;4900;49.306;8.500;2023-07-20T10:20:27;2.47;;;1.92;;
9722;SDS011;4900;49.306;8.500;2023-07-20T10:22:53;2.88;;;1.85;;
9722;SDS011;4900;49.306;8.500;2023-07-20T10:25:20;2.03;;;1.80;;
9722;SDS011;4900;49.306;8.500;2023-07-20T10:27:47;2.10;;;1.90;;
9722;SDS011;4900;49.306;8.500;2023-07-20T10:30:13;2.97;;;1.80;;
9722;SDS011;4900;49.306;8.500;2023-07-20T10:32:40;1.92;;;1.60;;
9722;SDS011;4900;49.306;8.500;2023-07-20T10:35:13;2.90;;;2.00;;
9722;SDS011;4900;49.306;8.500;2023-07-20T10:37:55;2.00;;;1.80;;
9722;SDS011;4900;49.306;8.500;2023-07-20T10:42:56;2.00;;;1.80;;
9722;SDS011;4900;49.306;8.500;2023-07-20T10:50:44;2.58;;;2.25;;
9722;SDS011;4900;49.306;8.500;2023-07-20T10:53:11;2.20;;;1.98;;
9722;SDS011;4900;49.306;8.500;2023-07-20T10:55:37;2.20;;;2.00;;
9722;SDS011;4900;49.306;8.500;2023-07-20T10:58:07;2.20;;;2.00;;
9722;SDS011;4900;49.306;8.500;2023-07-20T11:00:54;3.55;;;1.85;;
9722;SDS011;4900;49.306;8.500;2023-07-20T11:03:28;3.28;;;1.75;;
9722;SDS011;4900;49.306;8.500;2023-07-20T11:05:56;2.40;;;2.20;;
9722;SDS011;4900;49.306;8.500;2023-07-20T11:08:38;2.47;;;1.67;;
9722;SDS011;4900;49.306;8.500;2023-07-20T11:11:20;2.15;;;1.95;;
9722;SDS011;4900;49.306;8.500;2023-07-20T11:13:54;1.88;;;1.77;;
9722;SDS011;4900;49.306;8.500;2023-07-20T11:16:34;3.58;;;1.88;;
9722;SDS011;4900;49.306;8.500;2023-07-20T11:21:54;2.65;;;1.90;;
9722;SDS011;4900;49.306;8.500;2023-07-20T11:24:23;3.45;;;2.10;;
9722;SDS011;4900;49.306;8.500;2023-07-20T11:26:49;2.67;;;2.08;;
9722;SDS011;4900;49.306;8.500;2023-07-20T11:29:17;2.15;;;1.95;;
9722;SDS011;4900;49.306;8.500;2023-07-20T11:31:45;2.72;;;1.83;;
9722;SDS011;4900;49.306;8.500;2023-07-20T11:34:12;2.30;;;2.10;;
9722;SDS011;4900;49.306;8.500;2023-07-20T11:36:48;2.22;;;2.03;;
9722;SDS011;4900;49.306;8.500;2023-07-20T11:39:15;2.92;;;1.90;;
9722;SDS011;4900;49.306;8.500;2023-07-20T11:41:54;2.38;;;2.17;;
9722;SDS011;4900;49.306;8.500;2023-07-20T11:44:21;2.72;;;1.92;;
9722;SDS011;4900;49.306;8.500;2023-07-20T11:49:41;2.10;;;1.70;;
9722;SDS011;4900;49.306;8.500;2023-07-20T11:52:08;2.75;;;2.30;;
9722;SDS011;4900;49.306;8.500;2023-07-20T11:54:35;3.03;;;2.50;;
9722;SDS011;4900;49.306;8.500;2023-07-20T11:57:03;3.10;;;1.80;;
9722;SDS011;4900;49.306;8.500;2023-07-20T11:59:30;2.63;;;1.80;;
9722;SDS011;4900;49.306;8.500;2023-07-20T12:01:56;2.30;;;2.10;;
9722;SDS011;4900;49.306;8.500;2023-07-20T12:04:23;2.33;;;1.65;;
9722;SDS011;4900;49.306;8.500;2023-07-20T12:06:49;3.05;;;1.90;;
9722;SDS011;4900;49.306;8.500;2023-07-20T12:09:15;1.90;;;1.70;;
9722;SDS011;4900;49.306;8.500;2023-07-20T12:11:43;3.03;;;1.90;;
9722;SDS011;4900;49.306;8.500;2023-07-20T12:14:10;2.63;;;1.70;;
9722;SDS011;4900;49.306;8.500;2023-07-20T12:16:36;2.47;;;1.85;;
9722;SDS011;4900;49.306;8.500;2023-07-20T12:19:06;3.10;;;1.85;;
9722;SDS011;4900;49.306;8.500;2023-07-20T12:21:38;2.00;;;1.80;;
9722;SDS011;4900;49.306;8.500;2023-07-20T12:24:06;2.20;;;1.85;;
9722;SDS011;4900;49.306;8.500;2023-07-20T12:26:34;2.63;;;1.88;;
9722;SDS011;4900;49.306;8.500;2023-07-20T12:28:59;2.40;;;1.98;;
9722;SDS011;4900;49.306;8.500;2023-07-20T12:31:26;2.22;;;1.88;;
9722;SDS011;4900;49.306;8.500;2023-07-20T12:33:52;2.88;;;1.80;;
9722;SDS011;4900;49.306;8.500;2023-07-20T12:36:20;2.38;;;1.85;;
9722;SDS011;4900;49.306;8.500;2023-07-20T12:38:46;2.90;;;1.70;;
9722;SDS011;4900;49.306;8.500;2023-07-20T12:41:12;2.15;;;1.80;;
9722;SDS011;4900;49.306;8.500;2023-07-20T12:43:39;2.17;;;1.98;;
9722;SDS011;4900;49.306;8.500;2023-07-20T12:46:07;4.40;;;1.83;;
9722;SDS011;4900;49.306;8.500;2023-07-20T12:48:35;2.22;;;2.03;;
9722;SDS011;4900;49.306;8.500;2023-07-20T12:51:02;2.85;;;2.00;;
9722;SDS011;4900;49.306;8.500;2023-07-20T12:53:28;4.35;;;2.00;;
9722;SDS011;4900;49.306;8.500;2023-07-20T12:55:54;10.05;;;2.22;;
9722;SDS011;4900;49.306;8.500;2023-07-20T12:58:19;7.03;;;2.30;;
9722;SDS011;4900;49.306;8.500;2023-07-20T13:00:45;3.63;;;1.88;;
9722;SDS011;4900;49.306;8.500;2023-07-20T13:03:10;1.95;;;1.63;;
9722;SDS011;4900;49.306;8.500;2023-07-20T13:05:36;2.00;;;1.80;;
9722;SDS011;4900;49.306;8.500;2023-07-20T13:08:02;3.30;;;2.20;;
9722;SDS011;4900;49.306;8.500;2023-07-20T13:10:27;2.00;;;1.80;;
9722;SDS011;4900;49.306;8.500;2023-07-20T13:12:54;2.63;;;1.67;;
9722;SDS011;4900;49.306;8.500;2023-07-20T13:15:19;2.85;;;1.92;;
9722;SDS011;4900;49.306;8.500;2023-07-20T13:17:45;1.98;;;1.58;;
9722;SDS011;4900;49.306;8.500;2023-07-20T13:20:11;2.17;;;1.90;;
9722;SDS011;4900;49.306;8.500;2023-07-20T13:22:40;2.45;;;2.00;;
9722;SDS011;4900;49.306;8.500;2023-07-20T13:25:05;1.90;;;1.70;;
9722;SDS011;4900;49.306;8.500;2023-07-20T13:27:34;1.92;;;1.70;;
9722;SDS011;4900;49.306;8.500;2023-07-20T13:30:01;2.42;;;1.70;;
9722;SDS011;4900;49.306;8.500;2023-07-20T13:32:31;4.32;;;2.40;;
9722;SDS011;4900;49.306;8.500;2023-07-20T13:34:57;2.33;;;1.90;;
9722;SDS011;4900;49.306;8.500;2023-07-20T13:37:22;1.80;;;1.70;;
9722;SDS011;4900;49.306;8.500;2023-07-20T13:39:48;2.22;;;2.00;;
9722;SDS011;4900;49.306;8.500;2023-07-20T13:42:13;3.60;;;1.85;;
9722;SDS011;4900;49.306;8.500;2023-07-20T13:44:38;2.53;;;1.85;;
9722;SDS011;4900;49.306;8.500;2023-07-20T13:47:04;1.73;;;1.63;;
9722;SDS011;4900;49.306;8.500;2023-07-20T13:49:33;2.55;;;1.70;;
9722;SDS011;4900;49.306;8.500;2023-07-20T13:51:58;1.90;;;1.65;;
9722;SDS011;4900;49.306;8.500;2023-07-20T13:54:24;2.00;;;1.33;;
9722;SDS011;4900;49.306;8.500;2023-07-20T13:56:50;1.63;;;1.52;;
9722;SDS011;4900;49.306;8.500;2023-07-20T13:59:16;1.75;;;1.50;;
9722;SDS011;4900;49.306;8.500;2023-07-20T14:01:42;1.90;;;1.70;;
9722;SDS011;4900;49.306;8.500;2023-07-20T14:04:08;2.00;;;1.77;;
9722;SDS011;4900;49.306;8.500;2023-07-20T14:06:34;1.63;;;1.52;;
9722;SDS011;4900;49.306;8.500;2023-07-20T14:09:00;1.83;;;1.65;;
9722;SDS011;4900;49.306;8.500;2023-07-20T14:11:26;1.60;;;1.50;;
9722;SDS011;4900;49.306;8.500;2023-07-20T14:13:52;1.70;;;1.50;;
9722;SDS011;4900;49.306;8.500;2023-07-20T14:16:18;1.70;;;1.60;;
9722;SDS011;4900;49.306;8.500;2023-07-20T14:18:44;1.65;;;1.55;;
9722;SDS011;4900;49.306;8.500;2023-07-20T14:21:12;2.25;;;2.03;;
9722;SDS011;4900;49.306;8.500;2023-07-20T14:23:38;2.58;;;1.90;;
9722;SDS011;4900;49.306;8.500;2023-07-20T14:26:03;2.30;;;2.10;;
9722;SDS011;4900;49.306;8.500;2023-07-20T14:28:33;2.97;;;1.83;;
9722;SDS011;4900;49.306;8.500;2023-07-20T14:30:59;2.40;;;1.80;;
9722;SDS011;4900;49.306;8.500;2023-07-20T14:33:25;2.20;;;2.00;;
9722;SDS011;4900;49.306;8.500;2023-07-20T14:35:50;1.92;;;1.73;;
9722;SDS011;4900;49.306;8.500;2023-07-20T14:38:16;2.97;;;1.70;;
9722;SDS011;4900;49.306;8.500;2023-07-20T14:40:41;1.80;;;1.50;;
9722;SDS011;4900;49.306;8.500;2023-07-20T14:43:07;2.70;;;1.73;;
9722;SDS011;4900;49.306;8.500;2023-07-20T14:45:32;1.73;;;1.63;;
9722;SDS011;4900;49.306;8.500;2023-07-20T14:47:57;2.13;;;1.60;;
9722;SDS011;4900;49.306;8.500;2023-07-20T14:50:23;2.17;;;1.80;;
9722;SDS011;4900;49.306;8.500;2023-07-20T14:52:49;1.80;;;1.70;;
9722;SDS011;4900;49.306;8.500;2023-07-20T14:55:14;1.65;;;1.55;;
9722;SDS011;4900;49.306;8.500;2023-07-20T14:57:40;1.70;;;1.60;;
9722;SDS011;4900;49.306;8.500;2023-07-20T15:00:06;1.73;;;1.63;;
9722;SDS011;4900;49.306;8.500;2023-07-20T15:02:33;3.08;;;1.70;;
9722;SDS011;4900;49.306;8.500;2023-07-20T15:04:59;2.22;;;1.65;;
9722;SDS011;4900;49.306;8.500;2023-07-20T15:07:25;1.98;;;1.58;;
9722;SDS011;4900;49.306;8.500;2023-07-20T15:09:50;2.05;;;1.63;;
9722;SDS011;4900;49.306;8.500;2023-07-20T15:12:16;1.58;;;1.48;;
9722;SDS011;4900;49.306;8.500;2023-07-20T15:14:42;2.33;;;1.80;;
9722;SDS011;4900;49.306;8.500;2023-07-20T15:17:11;1.70;;;1.40;;
9722;SDS011;4900;49.306;8.500;2023-07-20T15:19:37;1.95;;;1.63;;
9722;SDS011;4900;49.306;8.500;2023-07-20T15:22:04;1.98;;;1.80;;
9722;SDS011;4900;49.306;8.500;2023-07-20T15:24:31;1.83;;;1.63;;
9722;SDS011;4900;49.306;8.500;2023-07-20T15:26:56;1.83;;;1.70;;
9722;SDS011;4900;49.306;8.500;2023-07-20T15:29:22;2.83;;;1.60;;
9722;SDS011;4900;49.306;8.500;2023-07-20T15:31:48;2.47;;;1.90;;
9722;SDS011;4900;49.306;8.500;2023-07-20T15:34:13;1.60;;;1.50;;
9722;SDS011;4900;49.306;8.500;2023-07-20T15:36:40;1.70;;;1.60;;
9722;SDS011;4900;49.306;8.500;2023-07-20T15:39:06;2.10;;;1.90;;